createdAt,value
2023-02-14T00:01:13.171Z,2.69
2023-02-14T00:03:39.985Z,2.70
2023-02-14T00:06:14.093Z,2.75
2023-02-14T00:08:44.253Z,2.80
2023-02-14T00:11:12.120Z,2.83
2023-02-14T00:13:38.698Z,2.78
2023-02-14T00:16:05.326Z,2.73
2023-02-14T00:18:50.350Z,2.71
2023-02-14T00:21:16.874Z,2.71
2023-02-14T00:23:43.351Z,2.67
2023-02-14T00:26:15.005Z,2.72
2023-02-14T00:28:41.980Z,2.71
2023-02-14T00:31:08.709Z,2.79
2023-02-14T00:33:35.476Z,2.81
2023-02-14T00:36:07.180Z,2.73
2023-02-14T00:38:34.174Z,2.77
2023-02-14T00:41:00.868Z,2.72
2023-02-14T00:43:28.666Z,2.64
2023-02-14T00:45:55.178Z,2.61
2023-02-14T00:48:21.745Z,2.60
2023-02-14T00:50:48.381Z,2.56
2023-02-14T00:53:14.924Z,2.61
2023-02-14T00:55:41.387Z,2.61
2023-02-14T00:58:07.886Z,2.64
2023-02-14T01:00:36.950Z,2.61
2023-02-14T01:03:03.494Z,2.57
2023-02-14T01:05:32.676Z,2.51
2023-02-14T01:07:59.160Z,2.56
2023-02-14T01:10:25.676Z,2.56
2023-02-14T01:12:52.118Z,2.55
2023-02-14T01:15:18.642Z,2.49
2023-02-14T01:17:45.299Z,2.46
2023-02-14T01:20:11.955Z,2.47
2023-02-14T01:22:38.802Z,2.48
2023-02-14T01:25:05.567Z,2.43
2023-02-14T01:27:34.671Z,2.40
2023-02-14T01:30:01.253Z,2.31
2023-02-14T01:32:31.284Z,2.35
2023-02-14T01:34:57.919Z,2.33
2023-02-14T01:37:24.457Z,2.31
2023-02-14T01:39:50.927Z,2.27
2023-02-14T01:42:17.670Z,2.28
2023-02-14T01:44:50.226Z,2.21
2023-02-14T01:47:18.161Z,2.15
2023-02-14T01:49:49.670Z,2.11
2023-02-14T01:52:31.110Z,2.19
2023-02-14T01:55:06.438Z,2.21
2023-02-14T01:57:42.823Z,2.16
2023-02-14T02:00:28.751Z,2.21
2023-02-14T02:02:58.789Z,2.13
2023-02-14T02:05:28.852Z,2.11
2023-02-14T02:07:58.862Z,2.08
2023-02-14T02:10:25.464Z,2.21
2023-02-14T02:12:53.629Z,2.28
2023-02-14T02:15:25.468Z,2.30
2023-02-14T02:18:18.908Z,2.13
2023-02-14T02:21:00.294Z,2.14
2023-02-14T02:23:48.437Z,2.23
2023-02-14T02:26:48.305Z,2.31
2023-02-14T02:29:27.586Z,2.19
2023-02-14T02:32:19.963Z,2.02
2023-02-14T02:35:16.138Z,1.93
2023-02-14T02:38:09.432Z,2.07
2023-02-14T02:40:48.177Z,2.08
2023-02-14T02:43:46.748Z,2.09
2023-02-14T02:46:49.013Z,2.14
2023-02-14T02:49:49.512Z,2.17
2023-02-14T02:53:00.467Z,2.11
2023-02-14T02:56:14.574Z,2.07
2023-02-14T02:58:53.826Z,2.10
2023-02-14T03:01:28.297Z,2.03
2023-02-14T03:04:23.834Z,1.98
2023-02-14T03:06:51.412Z,2.01
2023-02-14T03:09:20.723Z,2.10
2023-02-14T03:11:59.616Z,2.08
2023-02-14T03:14:35.479Z,2.07
2023-02-14T03:17:19.059Z,2.10
2023-02-14T03:20:17.553Z,2.07
2023-02-14T03:23:07.267Z,2.09
2023-02-14T03:25:46.760Z,2.07
2023-02-14T03:28:17.531Z,2.01
2023-02-14T03:30:54.214Z,2.07
2023-02-14T03:33:50.616Z,2.01
2023-02-14T03:36:23.644Z,1.99
2023-02-14T03:38:59.676Z,2.00
2023-02-14T03:41:31.923Z,1.99
2023-02-14T03:44:03.248Z,2.00
2023-02-14T03:46:51.908Z,1.86
2023-02-14T03:49:26.998Z,1.96
2023-02-14T03:51:56.079Z,1.92
2023-02-14T03:54:25.918Z,1.97
2023-02-14T03:57:00.296Z,1.94
2023-02-14T03:59:28.988Z,1.96
2023-02-14T04:02:04.105Z,1.93
2023-02-14T04:04:35.892Z,1.91
2023-02-14T04:07:11.298Z,2.00
2023-02-14T04:09:38.029Z,2.04
2023-02-14T04:12:04.579Z,1.99
2023-02-14T04:14:31.060Z,1.89
2023-02-14T04:17:20.574Z,1.85
2023-02-14T04:19:47.144Z,1.95
2023-02-14T04:22:13.791Z,1.93
2023-02-14T04:24:40.319Z,1.95
2023-02-14T04:27:12.828Z,1.90
2023-02-14T04:29:44.582Z,1.95
2023-02-14T04:32:16.293Z,1.94
2023-02-14T04:34:43.496Z,1.97
2023-02-14T04:37:10.432Z,2.01
2023-02-14T04:39:38.387Z,2.01
2023-02-14T04:42:05.241Z,1.91
2023-02-14T04:44:33.911Z,1.95
2023-02-14T04:47:01.404Z,1.92
2023-02-14T04:49:31.057Z,1.88
2023-02-14T04:51:57.902Z,1.89
2023-02-14T04:54:24.451Z,1.89
2023-02-14T04:56:51.164Z,1.94
2023-02-14T04:59:17.729Z,1.84
2023-02-14T05:01:47.385Z,1.75
2023-02-14T05:04:13.898Z,1.77
2023-02-14T05:06:40.555Z,1.62
2023-02-14T05:09:07.147Z,1.53
2023-02-14T05:11:36.892Z,1.62
2023-02-14T05:14:03.413Z,1.59
2023-02-14T05:16:30.045Z,1.65
2023-02-14T05:18:56.552Z,1.75
2023-02-14T05:21:23.105Z,1.78
2023-02-14T05:23:52.219Z,1.77
2023-02-14T05:26:18.734Z,1.66
2023-02-14T05:28:45.210Z,1.60
2023-02-14T05:31:11.873Z,1.67
2023-02-14T05:33:38.396Z,1.65
2023-02-14T05:36:08.153Z,1.70
2023-02-14T05:38:37.877Z,1.74
2023-02-14T05:41:04.572Z,1.66
2023-02-14T05:43:31.394Z,1.73
2023-02-14T05:45:58.486Z,1.70
2023-02-14T05:48:25.505Z,1.68
2023-02-14T05:50:52.116Z,1.70
2023-02-14T05:53:18.763Z,1.70
2023-02-14T05:55:45.240Z,1.64
2023-02-14T05:58:12.666Z,1.54
2023-02-14T06:00:41.232Z,1.57
2023-02-14T06:03:08.301Z,1.63
2023-02-14T06:05:34.786Z,1.65
2023-02-14T06:08:01.517Z,1.62
2023-02-14T06:10:28.084Z,1.64
2023-02-14T06:12:54.986Z,1.63
2023-02-14T06:15:21.601Z,1.71
2023-02-14T06:17:55.475Z,1.75
2023-02-14T06:20:24.066Z,1.72
2023-02-14T06:22:51.613Z,1.69
2023-02-14T06:25:18.209Z,1.61
2023-02-14T06:27:44.718Z,1.61
2023-02-14T06:30:12.490Z,1.66
2023-02-14T06:32:39.595Z,1.71
2023-02-14T06:35:07.576Z,1.72
2023-02-14T06:37:34.656Z,1.79
2023-02-14T06:40:01.863Z,1.91
2023-02-14T06:42:28.318Z,1.89
2023-02-14T06:44:54.961Z,1.87
2023-02-14T06:47:21.460Z,1.84
2023-02-14T06:49:47.984Z,1.85
2023-02-14T06:52:14.559Z,1.92
2023-02-14T06:54:40.999Z,1.93
2023-02-14T06:57:07.724Z,1.90
2023-02-14T06:59:34.217Z,1.86
2023-02-14T07:02:00.833Z,1.91
2023-02-14T07:04:30.871Z,2.02
2023-02-14T07:06:58.174Z,2.00
2023-02-14T07:09:24.734Z,1.96
2023-02-14T07:11:51.218Z,1.98
2023-02-14T07:14:17.665Z,2.00
2023-02-14T07:16:44.180Z,1.98
2023-02-14T07:19:10.720Z,1.91
2023-02-14T07:21:37.207Z,1.98
2023-02-14T07:24:03.713Z,2.03
2023-02-14T07:26:30.170Z,2.02
2023-02-14T07:28:56.706Z,2.10
2023-02-14T07:31:23.545Z,2.15
2023-02-14T07:33:53.067Z,2.21
2023-02-14T07:36:19.707Z,2.30
2023-02-14T07:38:46.285Z,2.37
2023-02-14T07:41:12.730Z,2.40
2023-02-14T07:43:39.805Z,2.25
2023-02-14T07:46:06.848Z,2.52
2023-02-14T07:48:34.502Z,2.87
2023-02-14T07:51:01.727Z,3.19
2023-02-14T07:53:28.561Z,3.18
2023-02-14T07:55:55.123Z,3.13
2023-02-14T07:58:21.868Z,3.08
2023-02-14T08:00:48.603Z,2.67
2023-02-14T08:03:17.877Z,2.48
2023-02-14T08:05:44.429Z,2.43
2023-02-14T08:08:10.930Z,2.54
2023-02-14T08:10:37.428Z,2.77
2023-02-14T08:13:03.940Z,2.76
2023-02-14T08:15:53.717Z,2.91
2023-02-14T08:18:22.967Z,2.80
2023-02-14T08:20:52.387Z,3.05
2023-02-14T08:23:20.217Z,3.06
2023-02-14T08:25:49.088Z,3.09
2023-02-14T08:28:16.052Z,3.25
2023-02-14T08:30:43.488Z,3.31
2023-02-14T08:33:10.230Z,3.42
2023-02-14T08:35:37.038Z,3.48
2023-02-14T08:38:04.397Z,3.53
2023-02-14T08:40:31.451Z,3.59
2023-02-14T08:42:57.950Z,3.68
2023-02-14T08:45:24.487Z,3.79
2023-02-14T08:47:51.012Z,3.87
2023-02-14T08:50:18.847Z,3.92
2023-02-14T08:52:45.806Z,4.04
2023-02-14T08:55:13.792Z,4.15
2023-02-14T08:57:40.757Z,4.23
2023-02-14T09:00:11.200Z,4.45
2023-02-14T09:02:37.824Z,4.55
2023-02-14T09:05:04.546Z,4.75
2023-02-14T09:07:31.537Z,4.85
2023-02-14T09:10:01.485Z,5.02
2023-02-14T09:12:28.083Z,5.13
2023-02-14T09:14:54.586Z,5.19
2023-02-14T09:17:21.125Z,5.26
2023-02-14T09:19:47.551Z,5.47
2023-02-14T09:22:14.117Z,5.67
2023-02-14T09:24:41.434Z,5.75
2023-02-14T09:27:08.328Z,5.69
2023-02-14T09:29:35.290Z,5.70
2023-02-14T09:32:02.541Z,5.86
2023-02-14T09:34:32.471Z,5.94
2023-02-14T09:36:58.964Z,6.02
2023-02-14T09:39:25.605Z,6.13
2023-02-14T09:42:09.872Z,6.18
2023-02-14T09:44:51.636Z,6.31
2023-02-14T09:47:41.573Z,6.37
2023-02-14T09:50:18.252Z,6.48
2023-02-14T09:52:48.653Z,6.53
2023-02-14T09:55:17.356Z,6.50
2023-02-14T09:57:49.778Z,6.57
2023-02-14T10:00:41.114Z,6.83
2023-02-14T10:03:26.276Z,7.05
2023-02-14T10:06:06.666Z,7.15
2023-02-14T10:09:01.898Z,7.23
2023-02-14T10:11:28.635Z,7.21
2023-02-14T10:14:02.057Z,7.02
2023-02-14T10:16:33.580Z,7.15
2023-02-14T10:19:07.705Z,7.30
2023-02-14T10:21:41.805Z,7.36
2023-02-14T10:24:21.085Z,7.51
2023-02-14T10:26:50.817Z,7.54
2023-02-14T10:29:19.382Z,7.62
2023-02-14T10:32:03.062Z,7.63
2023-02-14T10:34:45.845Z,7.65
2023-02-14T10:37:30.359Z,7.83
2023-02-14T10:39:59.803Z,8.02
2023-02-14T10:42:55.191Z,8.11
2023-02-14T10:45:45.375Z,8.15
2023-02-14T10:48:31.253Z,8.27
2023-02-14T10:51:14.267Z,8.33
2023-02-14T10:53:52.944Z,8.33
2023-02-14T10:56:40.091Z,8.27
2023-02-14T10:59:35.801Z,8.45
2023-02-14T11:02:02.364Z,8.53
2023-02-14T11:04:32.264Z,8.60
2023-02-14T11:06:58.711Z,8.67
2023-02-14T11:09:25.201Z,8.66
2023-02-14T11:11:56.091Z,8.63
2023-02-14T11:14:33.552Z,8.63
2023-02-14T11:17:20.129Z,8.72
2023-02-14T11:20:02.586Z,8.71
2023-02-14T11:22:34.664Z,8.71
2023-02-14T11:25:20.055Z,8.72
2023-02-14T11:27:50.065Z,8.61
2023-02-14T11:30:41.469Z,8.59
2023-02-14T11:33:28.741Z,8.74
2023-02-14T11:35:55.885Z,8.80
2023-02-14T11:38:33.949Z,8.82
2023-02-14T11:41:01.034Z,8.84
2023-02-14T11:43:49.246Z,8.82
2023-02-14T11:46:22.852Z,8.83
2023-02-14T11:48:58.380Z,8.87
2023-02-14T11:51:34.887Z,8.80
2023-02-14T11:54:05.308Z,8.76
2023-02-14T11:56:49.555Z,8.75
2023-02-14T11:59:28.602Z,8.86
2023-02-14T12:01:58.843Z,8.81
2023-02-14T12:04:38.230Z,8.88
2023-02-14T12:07:21.170Z,8.97
2023-02-14T12:10:07.185Z,9.03
2023-02-14T12:12:42.964Z,9.06
2023-02-14T12:15:36.493Z,9.02
2023-02-14T12:18:40.517Z,9.09
2023-02-14T12:21:12.755Z,9.11
2023-02-14T12:23:51.318Z,9.16
2023-02-14T12:26:47.778Z,9.08
2023-02-14T12:29:31.420Z,9.07
2023-02-14T12:32:03.167Z,9.11
2023-02-14T12:34:30.065Z,9.21
2023-02-14T12:37:09.426Z,9.12
2023-02-14T12:40:12.114Z,9.19
2023-02-14T12:42:38.607Z,9.27
2023-02-14T12:45:19.971Z,9.26
2023-02-14T12:47:59.955Z,9.34
2023-02-14T12:50:59.926Z,9.27
2023-02-14T12:54:18.423Z,9.30
2023-02-14T12:57:35.335Z,9.38
2023-02-14T13:00:05.296Z,9.37
2023-02-14T13:02:50.540Z,9.36
2023-02-14T13:05:31.749Z,9.40
2023-02-14T13:08:37.847Z,9.45
2023-02-14T13:11:07.312Z,9.44
2023-02-14T13:13:36.666Z,9.32
2023-02-14T13:16:06.223Z,9.36
2023-02-14T13:18:58.045Z,9.37
2023-02-14T13:21:28.873Z,9.45
2023-02-14T13:24:01.963Z,9.41
2023-02-14T13:26:53.837Z,9.36
2023-02-14T13:29:26.312Z,9.36
2023-02-14T13:31:58.748Z,9.40
2023-02-14T13:34:39.272Z,9.40
2023-02-14T13:37:11.471Z,9.40
2023-02-14T13:39:43.920Z,9.35
2023-02-14T13:42:11.335Z,9.33
2023-02-14T13:44:50.672Z,9.35
2023-02-14T13:47:23.246Z,9.37
2023-02-14T13:49:59.535Z,9.35
2023-02-14T13:52:39.654Z,9.34
2023-02-14T13:55:09.921Z,9.29
2023-02-14T13:57:38.709Z,9.30
2023-02-14T14:00:17.250Z,9.32
2023-02-14T14:02:54.677Z,9.33
2023-02-14T14:05:48.692Z,9.35
2023-02-14T14:08:20.945Z,9.31
2023-02-14T14:10:55.753Z,9.25
2023-02-14T14:13:40.610Z,9.20
2023-02-14T14:16:24.229Z,9.17
2023-02-14T14:19:00.531Z,9.14
2023-02-14T14:21:39.098Z,9.13
2023-02-14T14:24:12.635Z,9.06
2023-02-14T14:26:50.056Z,9.05
2023-02-14T14:29:22.513Z,9.06
2023-02-14T14:31:55.357Z,9.10
2023-02-14T14:34:25.742Z,9.08
2023-02-14T14:37:16.175Z,9.03
2023-02-14T14:39:42.755Z,8.96
2023-02-14T14:42:16.430Z,8.99
2023-02-14T14:44:50.637Z,8.94
2023-02-14T14:47:21.910Z,8.89
2023-02-14T14:49:48.790Z,8.84
2023-02-14T14:52:34.921Z,8.78
2023-02-14T14:55:04.876Z,8.75
2023-02-14T14:57:31.432Z,8.69
2023-02-14T15:00:18.616Z,8.70
2023-02-14T15:03:14.648Z,8.63
2023-02-14T15:05:43.763Z,8.55
2023-02-14T15:08:32.214Z,8.45
2023-02-14T15:11:06.231Z,8.37
2023-02-14T15:13:49.943Z,8.34
2023-02-14T15:16:47.087Z,8.27
2023-02-14T15:19:37.287Z,8.21
2023-02-14T15:22:18.607Z,8.21
2023-02-14T15:24:45.792Z,8.13
2023-02-14T15:27:16.661Z,8.08
2023-02-14T15:30:04.529Z,8.03
2023-02-14T15:32:34.571Z,8.00
2023-02-14T15:35:03.590Z,7.95
2023-02-14T15:37:31.215Z,7.91
2023-02-14T15:39:58.412Z,7.84
2023-02-14T15:42:33.170Z,7.77
2023-02-14T15:45:24.046Z,7.69
2023-02-14T15:47:53.892Z,7.66
2023-02-14T15:50:27.719Z,7.62
2023-02-14T15:53:02.926Z,7.59
2023-02-14T15:55:30.731Z,7.52
2023-02-14T15:58:03.915Z,7.48
2023-02-14T16:00:31.732Z,7.44
2023-02-14T16:03:03.068Z,7.35
2023-02-14T16:05:29.613Z,7.26
2023-02-14T16:08:03.672Z,7.22
2023-02-14T16:10:39.365Z,7.15
2023-02-14T16:13:20.298Z,7.06
2023-02-14T16:16:16.958Z,6.95
2023-02-14T16:18:47.544Z,6.86
2023-02-14T16:21:26.829Z,6.83
2023-02-14T16:24:05.457Z,6.79
2023-02-14T16:26:33.133Z,6.71
2023-02-14T16:29:03.700Z,6.67
2023-02-14T16:31:30.295Z,6.61
2023-02-14T16:33:56.865Z,6.43
2023-02-14T16:36:27.533Z,6.27
2023-02-14T16:38:54.482Z,6.20
2023-02-14T16:41:24.244Z,6.12
2023-02-14T16:43:50.764Z,6.01
2023-02-14T16:46:21.090Z,5.94
2023-02-14T16:48:51.984Z,5.87
2023-02-14T16:51:24.582Z,5.84
2023-02-14T16:53:51.270Z,5.79
2023-02-14T16:56:24.017Z,5.69
2023-02-14T16:58:50.460Z,5.65
2023-02-14T17:01:18.950Z,5.55
2023-02-14T17:03:45.460Z,5.56
2023-02-14T17:06:19.048Z,5.55
2023-02-14T17:08:50.383Z,5.46
2023-02-14T17:11:17.258Z,5.40
2023-02-14T17:13:48.452Z,5.34
2023-02-14T17:16:16.582Z,5.35
2023-02-14T17:18:47.653Z,5.38
2023-02-14T17:21:15.938Z,5.42
2023-02-14T17:23:42.750Z,5.22
2023-02-14T17:26:11.136Z,5.01
2023-02-14T17:28:37.847Z,5.15
2023-02-14T17:31:04.722Z,5.16
2023-02-14T17:33:32.654Z,5.19
2023-02-14T17:36:12.073Z,5.15
2023-02-14T17:38:39.506Z,5.07
2023-02-14T17:41:18.651Z,5.13
2023-02-14T17:43:46.606Z,5.15
2023-02-14T17:46:16.265Z,5.18
2023-02-14T17:48:46.499Z,5.18
2023-02-14T17:51:14.897Z,5.16
2023-02-14T17:53:41.742Z,5.10
2023-02-14T17:56:14.576Z,4.99
2023-02-14T17:58:41.318Z,4.98
2023-02-14T18:01:11.286Z,5.05
2023-02-14T18:03:38.967Z,5.04
2023-02-14T18:06:06.760Z,5.03
2023-02-14T18:08:41.061Z,5.05
2023-02-14T18:11:09.627Z,5.02
2023-02-14T18:13:39.802Z,5.00
2023-02-14T18:16:10.325Z,4.95
2023-02-14T18:18:37.629Z,4.85
2023-02-14T18:21:06.397Z,4.61
2023-02-14T18:23:36.576Z,4.40
2023-02-14T18:26:07.004Z,4.29
2023-02-14T18:28:37.780Z,4.22
2023-02-14T18:31:10.388Z,4.17
2023-02-14T18:33:38.151Z,4.27
2023-02-14T18:36:07.249Z,4.39
2023-02-14T18:38:34.757Z,4.42
2023-02-14T18:41:13.099Z,4.36
2023-02-14T18:43:44.593Z,4.41
2023-02-14T18:46:13.760Z,4.44
2023-02-14T18:48:40.640Z,4.44
2023-02-14T18:51:07.038Z,4.51
2023-02-14T18:53:33.622Z,4.53
2023-02-14T18:56:03.934Z,4.51
2023-02-14T18:58:30.406Z,4.46
2023-02-14T19:00:57.521Z,4.43
2023-02-14T19:03:23.996Z,4.44
2023-02-14T19:05:53.502Z,4.44
2023-02-14T19:08:20.069Z,4.44
2023-02-14T19:10:46.545Z,4.37
2023-02-14T19:13:12.995Z,4.36
2023-02-14T19:15:39.483Z,4.23
2023-02-14T19:18:05.944Z,4.24
2023-02-14T19:20:32.393Z,4.31
2023-02-14T19:23:02.296Z,4.24
2023-02-14T19:25:29.443Z,4.19
2023-02-14T19:27:56.349Z,4.19
2023-02-14T19:30:22.837Z,4.22
2023-02-14T19:32:49.399Z,4.18
2023-02-14T19:35:15.976Z,4.14
2023-02-14T19:37:42.443Z,4.12
2023-02-14T19:40:10.888Z,3.88
2023-02-14T19:42:37.451Z,3.72
2023-02-14T19:45:04.257Z,3.80
2023-02-14T19:47:45.927Z,3.89
2023-02-14T19:50:13.498Z,3.95
2023-02-14T19:52:40.068Z,3.99
2023-02-14T19:55:10.121Z,3.99
2023-02-14T19:57:36.594Z,4.00
2023-02-14T20:00:04.078Z,4.04
2023-02-14T20:02:30.554Z,4.02
2023-02-14T20:05:01.036Z,4.00
2023-02-14T20:07:27.539Z,3.96
2023-02-14T20:09:54.776Z,3.95
2023-02-14T20:12:21.587Z,3.95
2023-02-14T20:14:51.804Z,3.95
2023-02-14T20:17:19.319Z,3.94
2023-02-14T20:19:46.041Z,3.90
2023-02-14T20:22:12.600Z,3.92
2023-02-14T20:24:39.129Z,3.94
2023-02-14T20:27:05.748Z,3.90
2023-02-14T20:29:33.234Z,3.88
2023-02-14T20:32:01.358Z,3.84
2023-02-14T20:34:31.463Z,3.79
2023-02-14T20:37:02.184Z,3.66
2023-02-14T20:39:34.388Z,3.63
2023-02-14T20:42:01.887Z,3.47
2023-02-14T20:44:28.858Z,3.45
2023-02-14T20:46:57.030Z,3.58
2023-02-14T20:49:25.269Z,3.49
2023-02-14T20:51:52.721Z,3.39
2023-02-14T20:54:21.414Z,3.38
2023-02-14T20:56:48.501Z,3.45
2023-02-14T20:59:15.044Z,3.50
2023-02-14T21:01:42.823Z,3.45
2023-02-14T21:04:09.320Z,3.41
2023-02-14T21:06:38.963Z,3.43
2023-02-14T21:09:06.487Z,3.43
2023-02-14T21:11:32.993Z,3.47
2023-02-14T21:14:01.190Z,3.47
2023-02-14T21:16:30.662Z,3.38
2023-02-14T21:18:58.994Z,3.43
2023-02-14T21:21:36.133Z,3.46
2023-02-14T21:24:08.322Z,3.41
2023-02-14T21:26:36.092Z,3.40
2023-02-14T21:29:03.035Z,3.34
2023-02-14T21:31:30.664Z,3.25
2023-02-14T21:33:59.310Z,3.20
2023-02-14T21:36:28.537Z,3.13
2023-02-14T21:38:59.741Z,3.09
2023-02-14T21:41:28.869Z,3.15
2023-02-14T21:43:57.396Z,3.20
2023-02-14T21:46:30.839Z,3.25
2023-02-14T21:49:18.513Z,3.20
2023-02-14T21:51:45.552Z,3.20
2023-02-14T21:54:12.226Z,3.15
2023-02-14T21:56:39.868Z,3.12
2023-02-14T21:59:06.443Z,3.13
2023-02-14T22:01:39.055Z,3.07
2023-02-14T22:04:09.941Z,3.08
2023-02-14T22:06:38.384Z,3.03
2023-02-14T22:09:12.943Z,3.07
2023-02-14T22:11:39.549Z,3.02
2023-02-14T22:14:06.055Z,3.04
2023-02-14T22:16:35.941Z,3.08
2023-02-14T22:19:03.764Z,3.09
2023-02-14T22:21:35.364Z,3.13
2023-02-14T22:24:02.151Z,3.12
2023-02-14T22:26:31.218Z,3.11
2023-02-14T22:28:59.441Z,2.98
2023-02-14T22:31:31.177Z,2.84
2023-02-14T22:34:05.977Z,2.91
2023-02-14T22:36:45.200Z,2.98
2023-02-14T22:39:19.690Z,2.99
2023-02-14T22:41:47.542Z,2.92
2023-02-14T22:44:14.352Z,2.95
2023-02-14T22:46:40.950Z,2.98
2023-02-14T22:49:07.714Z,2.92
2023-02-14T22:51:39.395Z,2.90
2023-02-14T22:54:15.231Z,2.91
2023-02-14T22:56:44.981Z,2.88
2023-02-14T22:59:20.251Z,2.98
2023-02-14T23:01:50.966Z,2.99
2023-02-14T23:04:21.972Z,3.07
2023-02-14T23:06:48.699Z,3.02
2023-02-14T23:09:15.600Z,2.86
2023-02-14T23:11:44.013Z,2.90
2023-02-14T23:14:33.155Z,2.93
2023-02-14T23:17:18.570Z,2.98
2023-02-14T23:20:04.835Z,2.98
2023-02-14T23:22:33.360Z,2.97
2023-02-14T23:25:01.871Z,3.01
2023-02-14T23:27:40.313Z,2.95
2023-02-14T23:30:10.857Z,2.89
2023-02-14T23:32:37.567Z,2.85
2023-02-14T23:35:04.758Z,2.89
2023-02-14T23:37:31.339Z,2.89
2023-02-14T23:39:57.827Z,2.95
2023-02-14T23:42:24.324Z,2.94
2023-02-14T23:44:55.185Z,2.87
2023-02-14T23:47:23.567Z,2.88
2023-02-14T23:49:50.060Z,2.83
2023-02-14T23:52:16.613Z,2.85
2023-02-14T23:54:43.142Z,2.83
2023-02-14T23:57:09.663Z,2.85
2023-02-14T23:59:36.330Z,2.83
